Time;durP1;ratioP1;P1;durP2;ratioP2;P2;SDS_P1;SDS_P2;PMS_P1;PMS_P2;Temp;Humidity;BMP_temperature;BMP_pressure;BME280_temperature;BME280_humidity;BME280_pressure;Samples;Min_cycle;Max_cycle;Signal;HPM_P1;HPM_P2
2022/03/02 00:00:24;;;;;;;8.05;4.65;;;-2.60;88.30;;;;;;2104752;28;20180;-68
2022/03/02 00:01:25;;;;;;;11.00;5.33;;;-2.50;88.30;;;;;;2082526;28;20201;-69
2022/03/02 00:02:26;;;;;;;10.30;5.30;;;-2.50;88.60;;;;;;2088023;28;20177;-71
2022/03/02 00:03:27;;;;;;;9.23;4.97;;;-2.50;88.90;;;;;;2102496;28;20210;-70
2022/03/02 00:04:27;;;;;;;9.17;5.03;;;-2.50;88.60;;;;;;2104534;28;20163;-71
2022/03/02 00:05:28;;;;;;;9.50;4.77;;;-2.50;88.50;;;;;;2097894;28;20614;-71
2022/03/02 00:06:29;;;;;;;10.40;5.73;;;-2.50;88.70;;;;;;2087793;28;20211;-72
2022/03/02 00:07:30;;;;;;;9.43;4.50;;;-2.40;88.90;;;;;;2088213;28;20665;-73
2022/03/02 00:08:30;;;;;;;8.33;4.80;;;-2.40;88.70;;;;;;2096152;28;20782;-72
2022/03/02 00:09:31;;;;;;;11.27;6.00;;;-2.40;88.20;;;;;;2096873;28;20189;-73
2022/03/02 00:10:32;;;;;;;11.00;4.73;;;-2.40;87.40;;;;;;2096617;28;20184;-72
2022/03/02 00:11:33;;;;;;;9.25;4.63;;;-2.40;87.70;;;;;;2088276;28;20173;-72
2022/03/02 00:12:34;;;;;;;11.60;5.13;;;-2.40;87.80;;;;;;2096571;28;20687;-72
2022/03/02 00:13:34;;;;;;;11.73;5.40;;;-2.50;88.20;;;;;;2096739;28;20180;-72
2022/03/02 00:14:35;;;;;;;9.23;5.13;;;-2.40;89.10;;;;;;2096610;28;20243;-72
2022/03/02 00:15:36;;;;;;;10.03;5.17;;;-2.40;88.40;;;;;;2095798;28;20583;-73
2022/03/02 00:16:37;;;;;;;9.00;5.37;;;-2.40;88.20;;;;;;2096550;28;20179;-72
2022/03/02 00:17:37;;;;;;;11.02;5.40;;;-2.50;88.40;;;;;;2094889;28;20253;-72
2022/03/02 00:18:39;;;;;;;11.40;5.77;;;-2.50;88.90;;;;;;2093940;28;20205;-73
2022/03/02 00:19:40;;;;;;;11.45;5.60;;;-2.50;89.40;;;;;;2087975;28;20214;-73
2022/03/02 00:20:41;;;;;;;8.48;5.22;;;-2.60;90.00;;;;;;2096463;28;20206;-73
2022/03/02 00:21:41;;;;;;;11.40;4.53;;;-2.60;90.10;;;;;;2096093;28;20190;-73
2022/03/02 00:22:42;;;;;;;10.13;4.60;;;-2.60;90.10;;;;;;2096569;28;20692;-73
2022/03/02 00:23:43;;;;;;;13.07;5.33;;;-2.60;90.00;;;;;;2097181;28;20578;-73
2022/03/02 00:24:44;;;;;;;10.63;5.70;;;-2.50;90.00;;;;;;2097307;28;20181;-73
2022/03/02 00:25:44;;;;;;;9.63;5.30;;;-2.60;90.20;;;;;;2096750;28;20181;-73
2022/03/02 00:26:45;;;;;;;9.63;4.77;;;-2.60;90.50;;;;;;2096812;28;20602;-73
2022/03/02 00:27:46;;;;;;;9.23;5.33;;;-2.60;90.60;;;;;;2096439;28;20200;-73
2022/03/02 00:28:46;;;;;;;7.90;5.17;;;-2.60;90.70;;;;;;2096684;28;20177;-73
2022/03/02 00:29:48;;;;;;;9.37;4.97;;;-2.60;90.40;;;;;;2088299;28;20277;-73
2022/03/02 00:30:50;;;;;;;9.50;5.00;;;-2.60;90.10;;;;;;2096769;28;20621;-73
2022/03/02 00:31:50;;;;;;;11.20;5.53;;;-2.60;90.20;;;;;;2096493;28;20192;-73
2022/03/02 00:32:51;;;;;;;7.30;4.60;;;-2.60;90.70;;;;;;2088305;28;20203;-73
2022/03/02 00:33:52;;;;;;;10.47;5.43;;;-2.50;90.00;;;;;;2096591;28;20177;-73
2022/03/02 00:34:53;;;;;;;10.50;5.22;;;-2.50;90.00;;;;;;2097376;28;20658;-73
2022/03/02 00:35:54;;;;;;;7.83;4.17;;;-2.60;90.00;;;;;;2096574;28;20186;-73
2022/03/02 00:36:54;;;;;;;10.60;4.50;;;-2.60;90.30;;;;;;2096547;28;20245;-73
2022/03/02 00:37:55;;;;;;;9.73;5.00;;;-2.60;90.30;;;;;;2088044;28;20284;-73
2022/03/02 00:38:56;;;;;;;9.27;5.93;;;-2.60;90.50;;;;;;2096653;28;20191;-73
2022/03/02 00:39:57;;;;;;;9.50;4.80;;;-2.60;90.70;;;;;;2097255;28;20187;-73
2022/03/02 00:40:58;;;;;;;8.13;4.38;;;-2.60;91.00;;;;;;2096706;28;20557;-73
2022/03/02 00:41:59;;;;;;;8.85;4.25;;;-2.60;90.80;;;;;;2088390;28;20193;-73
2022/03/02 00:42:59;;;;;;;9.53;4.83;;;-2.50;90.70;;;;;;2096586;28;20182;-73
2022/03/02 00:44:01;;;;;;;9.87;5.20;;;-2.40;90.30;;;;;;2097092;28;20311;-73
2022/03/02 00:45:02;;;;;;;12.93;6.53;;;-2.40;89.60;;;;;;2097291;28;20183;-73
2022/03/02 00:46:03;;;;;;;12.57;6.65;;;-2.40;88.70;;;;;;2096619;28;20646;-73
2022/03/02 00:47:05;;;;;;;10.40;5.03;;;-2.40;88.40;;;;;;2097177;28;20205;-73
2022/03/02 00:48:07;;;;;;;10.85;6.13;;;-2.30;88.80;;;;;;2097230;28;20194;-73
2022/03/02 00:49:08;;;;;;;10.80;5.45;;;-2.30;88.90;;;;;;2096569;28;20189;-73
2022/03/02 00:50:10;;;;;;;10.88;5.50;;;-2.30;88.70;;;;;;2096494;28;20602;-72
2022/03/02 00:51:11;;;;;;;11.00;6.38;;;-2.30;88.80;;;;;;2095599;28;20184;-73
2022/03/02 00:52:14;;;;;;;8.63;5.25;;;-2.30;89.10;;;;;;2094228;28;20188;-73
2022/03/02 00:53:15;;;;;;;9.68;5.22;;;-2.30;88.90;;;;;;2088298;28;20231;-73
2022/03/02 00:54:15;;;;;;;13.80;6.10;;;-2.20;89.70;;;;;;2080074;28;20177;-73
2022/03/02 00:55:16;;;;;;;9.93;5.80;;;-2.20;89.90;;;;;;2079431;28;20630;-72
2022/03/02 00:56:17;;;;;;;10.67;5.60;;;-2.20;89.70;;;;;;2079982;28;20659;-73
2022/03/02 00:57:18;;;;;;;10.13;5.23;;;-2.20;89.20;;;;;;2088422;28;20171;-73
2022/03/02 00:58:18;;;;;;;9.73;4.90;;;-2.10;88.90;;;;;;2089101;28;20644;-73
2022/03/02 00:59:19;;;;;;;7.87;4.63;;;-2.00;88.40;;;;;;2088763;28;20193;-73
2022/03/02 01:00:20;;;;;;;10.13;5.43;;;-2.00;87.80;;;;;;2088155;28;20169;-73
2022/03/02 01:01:21;;;;;;;10.82;5.40;;;-2.00;87.60;;;;;;2088230;28;20177;-73
2022/03/02 01:02:22;;;;;;;10.53;5.17;;;-2.00;87.40;;;;;;2088183;28;20232;-73
2022/03/02 01:03:22;;;;;;;10.13;5.07;;;-2.00;87.10;;;;;;2088139;28;20197;-73
2022/03/02 01:04:23;;;;;;;9.37;4.70;;;-2.00;87.10;;;;;;2088630;28;20200;-72
2022/03/02 01:05:24;;;;;;;8.90;5.23;;;-2.00;86.80;;;;;;2088376;28;20663;-73
2022/03/02 01:06:25;;;;;;;10.23;5.53;;;-1.90;86.80;;;;;;2088157;28;20180;-73
2022/03/02 01:07:25;;;;;;;11.57;5.60;;;-1.90;86.00;;;;;;2079845;28;20748;-74
2022/03/02 01:08:26;;;;;;;9.23;4.70;;;-1.80;86.30;;;;;;2079883;28;20186;-73
2022/03/02 01:09:27;;;;;;;8.83;4.90;;;-1.80;85.80;;;;;;2088042;28;20183;-73
2022/03/02 01:10:28;;;;;;;9.40;5.18;;;-1.80;85.30;;;;;;2079812;28;20179;-73
2022/03/02 01:11:28;;;;;;;9.67;5.07;;;-1.80;85.70;;;;;;2088055;28;20573;-72
2022/03/02 01:12:29;;;;;;;9.63;5.60;;;-1.80;85.20;;;;;;2088758;28;20182;-73
2022/03/02 01:13:30;;;;;;;10.10;5.67;;;-1.80;85.60;;;;;;2088721;28;20197;-74
2022/03/02 01:14:30;;;;;;;9.20;5.17;;;-1.80;86.40;;;;;;2088108;28;20663;-73
2022/03/02 01:15:31;;;;;;;11.30;5.00;;;-1.80;86.50;;;;;;2087307;28;20182;-72
2022/03/02 01:16:33;;;;;;;10.57;5.13;;;-1.80;86.60;;;;;;2096401;28;20526;-73
2022/03/02 01:17:33;;;;;;;8.32;4.95;;;-1.80;86.70;;;;;;2088062;28;20452;-73
2022/03/02 01:18:34;;;;;;;8.53;4.87;;;-1.80;86.30;;;;;;2079981;28;20193;-73
2022/03/02 01:19:36;;;;;;;12.10;5.77;;;-1.80;86.60;;;;;;2079854;28;20275;-73
2022/03/02 01:20:37;;;;;;;9.07;4.88;;;-1.80;86.90;;;;;;2088055;28;20178;-74
2022/03/02 01:21:37;;;;;;;10.27;5.37;;;-1.80;86.40;;;;;;2088126;28;20281;-73
2022/03/02 01:22:39;;;;;;;9.30;5.37;;;-1.90;86.60;;;;;;2080007;28;20284;-74
2022/03/02 01:23:39;;;;;;;13.07;5.85;;;-1.90;87.90;;;;;;2088075;28;20215;-73
2022/03/02 01:24:41;;;;;;;11.03;5.70;;;-1.90;88.30;;;;;;2096456;28;20204;-73
2022/03/02 01:25:42;;;;;;;11.30;5.25;;;-1.80;89.00;;;;;;2087445;28;20186;-73
2022/03/02 01:26:44;;;;;;;10.00;5.43;;;-1.80;88.90;;;;;;2088196;28;20262;-73
2022/03/02 01:27:45;;;;;;;7.97;4.82;;;-1.80;88.70;;;;;;2096272;28;20224;-73
2022/03/02 01:28:45;;;;;;;8.27;5.33;;;-1.80;88.30;;;;;;2088146;28;20570;-73
2022/03/02 01:29:46;;;;;;;12.87;5.83;;;-1.80;88.00;;;;;;2088036;28;20177;-72
2022/03/02 01:30:47;;;;;;;9.87;5.37;;;-1.80;88.60;;;;;;2096326;28;20184;-73
2022/03/02 01:31:47;;;;;;;9.20;4.97;;;-1.80;88.10;;;;;;2096845;28;20754;-73
2022/03/02 01:32:48;;;;;;;12.23;5.80;;;-1.80;87.50;;;;;;2097361;28;20633;-73
2022/03/02 01:33:50;;;;;;;8.63;5.40;;;-1.80;87.80;;;;;;2089567;28;20609;-73
2022/03/02 01:34:50;;;;;;;10.25;5.60;;;-1.80;87.20;;;;;;2089696;28;20181;-73
2022/03/02 01:35:51;;;;;;;9.20;4.83;;;-1.80;87.70;;;;;;2097255;28;20225;-73
2022/03/02 01:36:52;;;;;;;9.57;4.77;;;-1.90;88.20;;;;;;2097711;28;20847;-73
2022/03/02 01:37:52;;;;;;;10.47;4.70;;;-1.90;88.60;;;;;;2098285;28;20210;-73
2022/03/02 01:38:53;;;;;;;9.87;5.07;;;-1.90;89.60;;;;;;2097853;28;20193;-73
2022/03/02 01:39:54;;;;;;;8.07;5.57;;;-1.90;90.20;;;;;;2089438;28;20189;-73
2022/03/02 01:40:55;;;;;;;8.70;4.78;;;-1.90;90.60;;;;;;2089547;28;20190;-73
2022/03/02 01:41:56;;;;;;;9.70;5.23;;;-1.90;90.70;;;;;;2097615;28;20216;-73
2022/03/02 01:42:57;;;;;;;10.25;4.57;;;-1.90;90.70;;;;;;2097860;28;20198;-73
2022/03/02 01:43:58;;;;;;;8.47;4.60;;;-1.90;90.90;;;;;;2097617;28;20286;-73
2022/03/02 01:45:00;;;;;;;10.33;4.77;;;-1.90;90.90;;;;;;2098506;28;20263;-73
2022/03/02 01:46:01;;;;;;;8.40;4.78;;;-1.90;90.50;;;;;;2097113;28;20180;-73
2022/03/02 01:47:04;;;;;;;11.70;5.20;;;-1.90;90.50;;;;;;2089389;28;20186;-73
2022/03/02 01:48:05;;;;;;;7.93;4.40;;;-1.80;90.20;;;;;;2089868;28;20180;-73
2022/03/02 01:49:06;;;;;;;9.03;4.67;;;-1.80;89.90;;;;;;2089761;28;20680;-73
2022/03/02 01:50:10;;;;;;;9.30;5.33;;;-1.90;89.50;;;;;;2097795;28;20189;-73
2022/03/02 01:51:13;;;;;;;10.25;4.80;;;-1.80;89.10;;;;;;2098008;28;20205;-73
2022/03/02 01:52:14;;;;;;;8.77;5.65;;;-1.90;88.90;;;;;;2089911;28;20193;-73
2022/03/02 01:53:14;;;;;;;7.97;4.30;;;-1.90;88.70;;;;;;2090702;28;20579;-74
2022/03/02 01:54:15;;;;;;;8.03;4.43;;;-1.80;88.60;;;;;;2098031;28;20182;-73
2022/03/02 01:55:16;;;;;;;6.60;4.27;;;-1.80;88.80;;;;;;2097294;28;20201;-73
2022/03/02 01:56:17;;;;;;;10.60;4.72;;;-1.80;89.10;;;;;;2089879;28;20261;-73
2022/03/02 01:57:18;;;;;;;10.18;4.78;;;-1.80;89.10;;;;;;2097867;28;20178;-73
2022/03/02 01:58:19;;;;;;;8.07;4.87;;;-1.80;89.00;;;;;;2097888;28;20285;-74
2022/03/02 01:59:19;;;;;;;9.23;4.73;;;-1.80;88.90;;;;;;2097917;28;20178;-74
2022/03/02 02:00:23;;;;;;;7.87;4.20;;;-1.80;89.70;;;;;;2098024;28;20172;-73
2022/03/02 02:01:24;;;;;;;9.00;4.75;;;-1.80;89.60;;;;;;2089857;28;20170;-73
2022/03/02 02:02:25;;;;;;;9.95;4.45;;;-1.80;89.70;;;;;;2089691;28;20281;-74
2022/03/02 02:03:27;;;;;;;8.60;5.23;;;-1.90;90.00;;;;;;2097737;28;20200;-73
2022/03/02 02:04:27;;;;;;;8.07;4.15;;;-1.90;90.10;;;;;;2098534;28;20173;-73
2022/03/02 02:05:28;;;;;;;10.20;5.30;;;-2.00;90.10;;;;;;2097813;28;20685;-73
2022/03/02 02:06:30;;;;;;;6.95;4.50;;;-1.90;90.10;;;;;;2098571;28;20665;-74
2022/03/02 02:07:31;;;;;;;8.50;4.85;;;-2.00;90.00;;;;;;2089452;28;20228;-73
2022/03/02 02:08:32;;;;;;;9.30;4.87;;;-2.00;90.10;;;;;;2089728;28;20704;-73
2022/03/02 02:09:33;;;;;;;9.13;4.72;;;-2.00;89.90;;;;;;2098306;28;20178;-73
2022/03/02 02:10:35;;;;;;;10.17;4.73;;;-2.00;90.10;;;;;;2098453;28;20194;-74
2022/03/02 02:11:35;;;;;;;8.98;4.95;;;-2.00;90.20;;;;;;2097752;28;20424;-74
2022/03/02 02:12:36;;;;;;;7.97;4.60;;;-2.10;89.90;;;;;;2098020;28;20186;-73
2022/03/02 02:13:37;;;;;;;8.00;4.40;;;-2.10;90.00;;;;;;2098346;28;20678;-73
2022/03/02 02:14:38;;;;;;;10.70;5.55;;;-2.10;90.30;;;;;;2098379;28;20185;-73
2022/03/02 02:15:39;;;;;;;9.47;4.87;;;-2.10;90.70;;;;;;2097590;28;20676;-73
2022/03/02 02:16:39;;;;;;;8.03;5.03;;;-2.10;91.10;;;;;;2098324;28;20217;-73
2022/03/02 02:17:41;;;;;;;11.70;4.93;;;-2.10;91.00;;;;;;2097326;28;20211;-73
2022/03/02 02:18:42;;;;;;;8.25;5.13;;;-2.20;91.60;;;;;;2097527;28;20269;-73
2022/03/02 02:19:42;;;;;;;8.53;4.77;;;-2.20;90.90;;;;;;2098036;28;20815;-73
2022/03/02 02:20:43;;;;;;;10.10;4.57;;;-2.20;91.10;;;;;;2098186;28;20203;-73
2022/03/02 02:21:46;;;;;;;9.33;4.87;;;-2.30;90.80;;;;;;2098151;28;20183;-73
2022/03/02 02:22:47;;;;;;;10.80;4.65;;;-2.40;90.50;;;;;;2097735;28;20233;-73
2022/03/02 02:23:50;;;;;;;7.50;4.40;;;-2.40;90.50;;;;;;2097430;28;20218;-73
2022/03/02 02:24:50;;;;;;;10.90;5.25;;;-2.40;90.60;;;;;;2098155;28;20188;-74
2022/03/02 02:25:51;;;;;;;8.87;5.23;;;-2.50;91.00;;;;;;2096990;28;20181;-73
2022/03/02 02:26:52;;;;;;;8.53;4.57;;;-2.50;91.40;;;;;;2097713;28;20177;-73
2022/03/02 02:27:53;;;;;;;10.70;4.90;;;-2.60;92.10;;;;;;2098137;28;20250;-73
2022/03/02 02:28:55;;;;;;;9.50;4.93;;;-2.70;92.20;;;;;;2097484;28;20185;-73
2022/03/02 02:29:56;;;;;;;8.65;5.40;;;-2.70;92.40;;;;;;2089288;28;20189;-73
2022/03/02 02:30:59;;;;;;;10.30;4.88;;;-2.70;92.80;;;;;;2089329;28;20190;-73
2022/03/02 02:31:59;;;;;;;8.60;4.72;;;-2.70;92.90;;;;;;2097402;28;20206;-73
2022/03/02 02:33:00;;;;;;;8.27;4.37;;;-2.70;93.00;;;;;;2098266;28;20270;-73
2022/03/02 02:34:01;;;;;;;8.37;4.33;;;-2.80;93.10;;;;;;2089129;28;20213;-73
2022/03/02 02:35:02;;;;;;;8.40;4.17;;;-2.80;92.80;;;;;;2080904;28;20731;-73
2022/03/02 02:36:03;;;;;;;10.13;4.90;;;-2.80;92.70;;;;;;2096764;28;20679;-73
2022/03/02 02:37:05;;;;;;;7.57;4.20;;;-2.80;92.60;;;;;;2097395;28;20193;-74
2022/03/02 02:38:08;;;;;;;8.32;4.57;;;-2.80;92.50;;;;;;2089371;28;20218;-74
2022/03/02 02:39:10;;;;;;;9.20;4.18;;;-2.70;92.50;;;;;;2089397;28;20190;-73
2022/03/02 02:40:14;;;;;;;7.55;4.50;;;-2.80;92.30;;;;;;2089350;28;20180;-73
2022/03/02 02:41:18;;;;;;;8.55;5.03;;;-2.80;92.40;;;;;;2097464;28;20200;-73
2022/03/02 02:42:19;;;;;;;8.02;4.47;;;-2.80;92.40;;;;;;2097281;28;20192;-73
2022/03/02 02:43:24;;;;;;;7.83;4.60;;;-2.80;92.30;;;;;;2097458;28;20185;-73
2022/03/02 02:44:24;;;;;;;8.68;4.57;;;-2.80;92.20;;;;;;2096930;28;20180;-73
2022/03/02 02:45:25;;;;;;;7.17;4.43;;;-2.80;91.90;;;;;;2088632;28;20181;-73
2022/03/02 02:46:26;;;;;;;10.57;4.97;;;-2.80;91.60;;;;;;2096863;28;20192;-73
2022/03/02 02:47:27;;;;;;;7.97;4.37;;;-2.80;91.60;;;;;;2097310;28;20201;-74
2022/03/02 02:48:27;;;;;;;10.67;4.30;;;-2.80;91.50;;;;;;2097372;28;20354;-73
2022/03/02 02:49:28;;;;;;;9.00;4.87;;;-2.80;91.60;;;;;;2098035;28;20173;-73
2022/03/02 02:50:32;;;;;;;8.40;4.30;;;-2.80;91.40;;;;;;2098156;28;20165;-73
2022/03/02 02:51:33;;;;;;;7.70;4.13;;;-2.90;92.00;;;;;;2097921;28;20230;-73
2022/03/02 02:52:38;;;;;;;9.83;5.10;;;-2.90;91.70;;;;;;2097488;28;20712;-73
2022/03/02 02:53:38;;;;;;;9.27;4.53;;;-2.90;92.20;;;;;;2097449;28;20190;-73
2022/03/02 02:54:41;;;;;;;9.27;4.43;;;-3.00;92.20;;;;;;2098077;28;20290;-73
2022/03/02 02:55:44;;;;;;;9.05;4.65;;;-3.00;92.40;;;;;;2097422;28;20200;-73
2022/03/02 02:56:45;;;;;;;10.52;4.55;;;-3.00;92.60;;;;;;2097381;28;20269;-74
2022/03/02 02:57:45;;;;;;;9.40;4.53;;;-3.00;92.70;;;;;;2097440;28;20246;-73
2022/03/02 02:58:46;;;;;;;7.20;4.60;;;-3.10;92.50;;;;;;2097407;28;20183;-73
2022/03/02 02:59:47;;;;;;;7.83;3.80;;;-3.10;92.40;;;;;;2089136;28;20178;-73
2022/03/02 03:00:49;;;;;;;10.43;4.60;;;-3.10;92.40;;;;;;2097406;28;20258;-73
2022/03/02 03:01:50;;;;;;;8.52;4.35;;;-3.10;92.40;;;;;;2097280;28;20230;-73
2022/03/02 03:02:53;;;;;;;9.82;4.45;;;-3.10;92.50;;;;;;2097416;28;20309;-74
2022/03/02 03:03:54;;;;;;;6.97;4.13;;;-3.10;92.40;;;;;;2097237;28;20308;-72
2022/03/02 03:04:54;;;;;;;8.50;4.83;;;-3.10;92.60;;;;;;2097945;28;20203;-72
2022/03/02 03:05:55;;;;;;;7.47;4.37;;;-3.10;92.30;;;;;;2097373;28;20259;-72
2022/03/02 03:06:56;;;;;;;9.97;4.73;;;-3.10;92.10;;;;;;2097915;28;20664;-73
2022/03/02 03:08:00;;;;;;;9.77;5.10;;;-3.10;92.10;;;;;;2097706;28;20200;-75
2022/03/02 03:09:01;;;;;;;9.70;4.80;;;-3.10;91.80;;;;;;2097196;28;20587;-73
2022/03/02 03:10:03;;;;;;;6.00;3.57;;;-3.10;91.70;;;;;;2089078;28;20201;-72
2022/03/02 03:11:05;;;;;;;7.40;3.92;;;-3.10;91.70;;;;;;2097221;28;20431;-72
2022/03/02 03:12:06;;;;;;;9.05;4.03;;;-3.10;91.60;;;;;;2105427;28;20183;-73
2022/03/02 03:13:08;;;;;;;8.80;4.10;;;-3.10;91.60;;;;;;2097210;28;20208;-72
2022/03/02 03:14:10;;;;;;;6.65;3.72;;;-3.10;91.60;;;;;;2089037;28;20270;-73
2022/03/02 03:15:14;;;;;;;5.93;3.55;;;-3.10;91.60;;;;;;2088663;28;20184;-73
2022/03/02 03:16:15;;;;;;;8.15;3.85;;;-3.10;91.80;;;;;;2089092;28;20224;-73
2022/03/02 03:17:16;;;;;;;11.70;4.70;;;-3.20;91.90;;;;;;2088948;28;20180;-72
2022/03/02 03:18:16;;;;;;;8.20;4.10;;;-3.30;92.00;;;;;;2097057;28;20222;-72
2022/03/02 03:19:17;;;;;;;8.07;4.23;;;-3.30;92.20;;;;;;2097189;28;20184;-73
2022/03/02 03:20:22;;;;;;;8.10;4.30;;;-3.30;92.20;;;;;;2097622;28;20546;-72
2022/03/02 03:21:23;;;;;;;7.43;4.03;;;-3.30;92.30;;;;;;2096964;28;20595;-75
2022/03/02 03:22:23;;;;;;;7.10;3.80;;;-3.30;92.50;;;;;;2092944;28;20188;-73
2022/03/02 03:23:24;;;;;;;8.60;4.07;;;-3.40;92.60;;;;;;2096477;28;20193;-72
2022/03/02 03:24:25;;;;;;;9.10;4.60;;;-3.40;92.70;;;;;;2096540;28;20573;-72
2022/03/02 03:25:27;;;;;;;8.67;4.47;;;-3.40;92.80;;;;;;2096770;28;20188;-72
2022/03/02 03:26:28;;;;;;;8.48;4.93;;;-3.40;92.60;;;;;;2089107;28;20271;-72
2022/03/02 03:27:29;;;;;;;7.73;4.10;;;-3.40;92.60;;;;;;2097105;28;20210;-72
2022/03/02 03:28:29;;;;;;;10.70;4.53;;;-3.40;92.60;;;;;;2097592;28;20183;-72
2022/03/02 03:29:30;;;;;;;11.40;5.57;;;-3.40;92.80;;;;;;2097023;28;20278;-73
2022/03/02 03:30:31;;;;;;;7.97;3.73;;;-3.40;92.90;;;;;;2088846;28;20185;-73
2022/03/02 03:31:32;;;;;;;8.53;4.50;;;-3.40;92.80;;;;;;2088862;28;20216;-73
2022/03/02 03:32:32;;;;;;;7.47;3.87;;;-3.40;92.70;;;;;;2097129;28;20176;-73
2022/03/02 03:33:33;;;;;;;9.43;4.73;;;-3.40;92.80;;;;;;2097703;28;20199;-72
2022/03/02 03:34:34;;;;;;;5.77;3.37;;;-3.50;92.90;;;;;;2097471;28;20180;-73
2022/03/02 03:35:34;;;;;;;7.63;4.13;;;-3.50;93.20;;;;;;2097085;28;20176;-73
2022/03/02 03:36:35;;;;;;;7.43;4.50;;;-3.50;93.00;;;;;;2096897;28;20210;-72
2022/03/02 03:37:37;;;;;;;9.43;4.63;;;-3.50;93.00;;;;;;2097057;28;20196;-72
2022/03/02 03:38:37;;;;;;;7.57;4.65;;;-3.50;93.20;;;;;;2097034;28;20534;-73
2022/03/02 03:39:38;;;;;;;9.43;4.17;;;-3.50;93.20;;;;;;2097006;28;20190;-73
2022/03/02 03:40:39;;;;;;;9.80;5.23;;;-3.40;93.30;;;;;;2096907;28;20181;-72
2022/03/02 03:41:40;;;;;;;8.93;4.90;;;-3.40;93.20;;;;;;2088836;28;20180;-72
2022/03/02 03:42:41;;;;;;;9.30;4.43;;;-3.40;93.40;;;;;;2096810;28;20561;-73
2022/03/02 03:43:43;;;;;;;8.05;4.20;;;-3.30;93.50;;;;;;2096820;28;20287;-73
2022/03/02 03:44:44;;;;;;;6.80;3.92;;;-3.30;93.60;;;;;;2096899;28;20267;-73
2022/03/02 03:45:44;;;;;;;10.00;4.87;;;-3.30;93.50;;;;;;2096946;28;20171;-73
2022/03/02 03:46:45;;;;;;;7.87;4.57;;;-3.30;93.30;;;;;;2097471;28;20264;-72
2022/03/02 03:47:46;;;;;;;8.07;4.57;;;-3.30;93.40;;;;;;2097510;28;20670;-74
2022/03/02 03:48:46;;;;;;;8.17;4.43;;;-3.30;93.30;;;;;;2096913;28;20212;-73
2022/03/02 03:49:47;;;;;;;8.87;4.53;;;-3.30;93.10;;;;;;2096890;28;20170;-73
2022/03/02 03:50:48;;;;;;;11.27;5.03;;;-3.20;93.10;;;;;;2097474;28;20178;-73
2022/03/02 03:51:48;;;;;;;6.73;3.93;;;-3.20;93.10;;;;;;2097482;28;20554;-73
2022/03/02 03:52:49;;;;;;;7.00;5.00;;;-3.30;92.90;;;;;;2097551;28;20598;-73
2022/03/02 03:53:50;;;;;;;9.55;5.00;;;-3.20;92.90;;;;;;2097458;28;20207;-73
2022/03/02 03:54:51;;;;;;;10.10;4.67;;;-3.30;93.00;;;;;;2096832;28;20199;-73
2022/03/02 03:55:52;;;;;;;8.50;4.20;;;-3.20;92.90;;;;;;2095602;28;20183;-73
2022/03/02 03:56:52;;;;;;;7.40;4.23;;;-3.30;92.80;;;;;;2097228;28;20437;-72
2022/03/02 03:57:53;;;;;;;11.50;4.03;;;-3.30;92.70;;;;;;2097122;28;20207;-73
2022/03/02 03:58:54;;;;;;;9.57;4.87;;;-3.30;93.20;;;;;;2096828;28;20281;-73
2022/03/02 03:59:55;;;;;;;6.78;3.80;;;-3.40;93.00;;;;;;2097237;28;20184;-73
2022/03/02 04:00:56;;;;;;;9.70;4.57;;;-3.40;92.90;;;;;;2097292;28;20184;-73
2022/03/02 04:01:56;;;;;;;7.33;4.27;;;-3.50;93.00;;;;;;2096723;28;20226;-72
2022/03/02 04:02:57;;;;;;;8.43;4.30;;;-3.50;93.20;;;;;;2096788;28;20298;-72
2022/03/02 04:03:58;;;;;;;10.37;5.27;;;-3.50;93.20;;;;;;2096605;28;20292;-73
2022/03/02 04:04:59;;;;;;;6.37;3.67;;;-3.50;93.30;;;;;;2088401;28;20755;-73
2022/03/02 04:06:00;;;;;;;8.30;4.82;;;-3.50;93.30;;;;;;2096056;28;20794;-72
2022/03/02 04:07:01;;;;;;;7.70;4.20;;;-3.60;93.30;;;;;;2105001;28;20187;-73
2022/03/02 04:08:02;;;;;;;9.57;5.17;;;-3.60;93.60;;;;;;2097249;28;20199;-73
2022/03/02 04:09:03;;;;;;;7.53;4.67;;;-3.60;93.70;;;;;;2097470;28;20247;-73
2022/03/02 04:10:06;;;;;;;9.82;5.40;;;-3.60;93.90;;;;;;2096591;28;20677;-73
2022/03/02 04:11:06;;;;;;;9.68;5.07;;;-3.70;94.30;;;;;;2088713;28;20711;-74
2022/03/02 04:12:07;;;;;;;6.20;4.30;;;-3.60;94.30;;;;;;2096589;28;20176;-73
2022/03/02 04:13:08;;;;;;;6.50;4.22;;;-3.70;94.10;;;;;;2096717;28;20229;-72
2022/03/02 04:14:09;;;;;;;8.23;5.00;;;-3.70;94.20;;;;;;2096627;28;20233;-73
2022/03/02 04:15:11;;;;;;;7.77;4.40;;;-3.70;94.40;;;;;;2096754;28;20172;-73
2022/03/02 04:16:11;;;;;;;8.35;4.10;;;-3.80;94.60;;;;;;2096484;28;20180;-73
2022/03/02 04:17:12;;;;;;;6.97;4.03;;;-3.80;94.80;;;;;;2088192;28;20181;-73
2022/03/02 04:18:13;;;;;;;9.37;4.37;;;-3.80;95.00;;;;;;2096551;28;20217;-73
2022/03/02 04:19:13;;;;;;;8.00;4.23;;;-3.80;94.90;;;;;;2096728;28;20171;-73
2022/03/02 04:20:14;;;;;;;7.70;4.13;;;-3.80;95.00;;;;;;2096552;28;20238;-73
2022/03/02 04:21:15;;;;;;;7.07;4.00;;;-3.90;95.40;;;;;;2096583;28;20188;-73
2022/03/02 04:22:16;;;;;;;7.57;4.10;;;-3.80;95.50;;;;;;2096657;28;20179;-72
2022/03/02 04:23:17;;;;;;;6.10;3.50;;;-3.80;95.10;;;;;;2096609;28;20275;-73
2022/03/02 04:24:17;;;;;;;8.23;4.93;;;-3.80;95.10;;;;;;2096593;28;20192;-72
2022/03/02 04:25:18;;;;;;;8.67;4.27;;;-3.80;95.30;;;;;;2096681;28;20203;-73
2022/03/02 04:26:19;;;;;;;5.27;3.50;;;-3.80;95.30;;;;;;2097269;28;20178;-72
2022/03/02 04:27:19;;;;;;;9.07;4.20;;;-3.80;95.00;;;;;;2097284;28;20864;-73
2022/03/02 04:28:21;;;;;;;8.50;4.57;;;-3.80;95.10;;;;;;2097232;28;20706;-73
2022/03/02 04:29:22;;;;;;;7.22;4.38;;;-3.90;95.20;;;;;;2096552;28;20535;-73
2022/03/02 04:30:24;;;;;;;8.50;4.88;;;-3.80;95.20;;;;;;2096756;28;20194;-73
2022/03/02 04:31:24;;;;;;;8.27;4.57;;;-3.80;95.10;;;;;;2096454;28;20180;-72
2022/03/02 04:32:25;;;;;;;8.40;3.50;;;-3.80;94.90;;;;;;2088296;28;20202;-73
2022/03/02 04:33:26;;;;;;;9.23;4.60;;;-3.80;94.70;;;;;;2088048;28;20176;-73
2022/03/02 04:34:26;;;;;;;10.97;4.40;;;-3.80;94.60;;;;;;2096668;28;20168;-73
2022/03/02 04:35:27;;;;;;;6.85;3.88;;;-3.90;94.30;;;;;;2096019;28;20545;-72
2022/03/02 04:36:28;;;;;;;7.10;3.57;;;-3.90;94.50;;;;;;2097280;28;20176;-72
2022/03/02 04:37:29;;;;;;;6.47;3.60;;;-3.90;94.50;;;;;;2096518;28;20203;-72
2022/03/02 04:38:30;;;;;;;6.90;3.93;;;-3.90;94.50;;;;;;2096574;28;20791;-73
2022/03/02 04:39:31;;;;;;;7.23;3.50;;;-3.90;94.40;;;;;;2097209;28;20271;-73
2022/03/02 04:40:32;;;;;;;9.27;4.50;;;-3.90;94.40;;;;;;2096560;28;20453;-72
2022/03/02 04:41:33;;;;;;;8.73;4.45;;;-3.90;94.50;;;;;;2088353;28;20971;-73
2022/03/02 04:42:34;;;;;;;9.67;4.33;;;-3.90;94.60;;;;;;2096551;28;20274;-73
2022/03/02 04:43:35;;;;;;;9.80;4.40;;;-4.00;94.70;;;;;;2097040;28;20215;-73
2022/03/02 04:44:36;;;;;;;7.93;4.10;;;-4.00;94.80;;;;;;2097113;28;20182;-73
2022/03/02 04:45:36;;;;;;;7.70;4.23;;;-4.00;94.70;;;;;;2096408;28;20171;-73
2022/03/02 04:46:37;;;;;;;6.07;4.10;;;-4.00;94.70;;;;;;2097347;28;20178;-72
2022/03/02 04:47:38;;;;;;;6.07;3.60;;;-4.00;94.80;;;;;;2097116;28;20590;-73
2022/03/02 04:48:38;;;;;;;8.23;4.00;;;-4.00;95.00;;;;;;2092382;28;20259;-73
2022/03/02 04:49:39;;;;;;;8.87;4.23;;;-4.00;95.20;;;;;;2079959;28;20188;-73
2022/03/02 04:50:40;;;;;;;7.67;4.13;;;-4.00;95.20;;;;;;2088478;28;20185;-74
2022/03/02 04:51:41;;;;;;;7.37;4.00;;;-3.90;95.20;;;;;;2088901;28;20255;-73
2022/03/02 04:52:41;;;;;;;8.68;4.75;;;-3.90;95.00;;;;;;2088984;28;20180;-73
2022/03/02 04:53:42;;;;;;;8.37;3.80;;;-3.90;95.00;;;;;;2088922;28;20184;-73
2022/03/02 04:56:02;;;;;;;8.57;3.63;;;-4.00;94.90;;;;;;2088157;28;20243;-73
2022/03/02 04:57:05;;;;;;;9.23;4.65;;;-4.00;95.00;;;;;;2088190;28;20214;-73
2022/03/02 04:58:06;;;;;;;8.40;4.88;;;-4.00;94.90;;;;;;2080733;28;20216;-73
2022/03/02 04:59:07;;;;;;;7.73;4.40;;;-3.90;94.70;;;;;;2080193;28;20181;-73
2022/03/02 05:00:18;;;;;;;7.03;3.58;;;-3.90;94.60;;;;;;2088458;28;20246;-73
2022/03/02 05:01:19;;;;;;;7.72;3.83;;;-3.90;94.70;;;;;;2088618;28;20195;-73
2022/03/02 05:02:20;;;;;;;7.90;4.17;;;-3.90;94.60;;;;;;2088507;28;20917;-73
2022/03/02 05:03:20;;;;;;;8.90;4.50;;;-3.90;94.20;;;;;;2089016;28;20180;-74
2022/03/02 05:04:21;;;;;;;6.90;3.67;;;-3.90;94.20;;;;;;2088330;28;20318;-73
2022/03/02 05:05:25;;;;;;;10.17;6.17;;;-3.90;94.40;;;;;;2079803;28;20169;-72
2022/03/02 05:06:25;;;;;;;8.68;5.85;;;-3.90;94.40;;;;;;2080523;28;20177;-73
2022/03/02 05:07:26;;;;;;;8.87;5.73;;;-4.00;94.60;;;;;;2080875;28;20205;-73
2022/03/02 05:08:27;;;;;;;8.93;5.50;;;-4.00;94.70;;;;;;2090008;28;20184;-73
2022/03/02 05:09:27;;;;;;;7.83;4.90;;;-4.00;94.80;;;;;;2090191;28;20176;-73
2022/03/02 05:10:29;;;;;;;7.27;5.03;;;-4.00;94.80;;;;;;2081751;28;20227;-73
2022/03/02 05:11:29;;;;;;;7.65;4.18;;;-4.00;95.20;;;;;;2082130;28;20215;-73
2022/03/02 05:12:30;;;;;;;8.27;4.10;;;-4.00;95.30;;;;;;2081898;28;20185;-73
2022/03/02 05:13:31;;;;;;;7.57;4.23;;;-4.00;95.10;;;;;;2090287;28;20215;-72
2022/03/02 05:14:31;;;;;;;8.17;4.03;;;-4.00;95.20;;;;;;2089943;28;20515;-72
2022/03/02 05:15:33;;;;;;;8.67;4.20;;;-4.10;95.10;;;;;;2089547;28;20219;-73
2022/03/02 05:16:33;;;;;;;8.82;5.22;;;-4.10;95.80;;;;;;2081594;28;20647;-73
2022/03/02 05:17:35;;;;;;;8.80;4.70;;;-4.10;95.40;;;;;;2095375;28;20203;-73
2022/03/02 05:18:36;;;;;;;7.22;4.18;;;-4.10;95.50;;;;;;2098421;28;20698;-73